sensor_id;sensor_type;location;lat;lon;timestamp;P1;durP1;ratioP1;P2;durP2;ratioP2
75358;SDS011;64046;51.978;5.934;2024-03-23T00:53:36;18.13;;;5.68;;
75358;SDS011;64046;51.978;5.934;2024-03-23T00:56:05;18.27;;;5.95;;
75358;SDS011;64046;51.978;5.934;2024-03-23T00:58:32;17.45;;;6.70;;
75358;SDS011;64046;51.978;5.934;2024-03-23T01:00:58;22.92;;;7.25;;
75358;SDS011;64046;51.978;5.934;2024-03-23T01:03:25;16.02;;;6.30;;
75358;SDS011;64046;51.978;5.934;2024-03-23T01:05:52;15.63;;;5.80;;
75358;SDS011;64046;51.978;5.934;2024-03-23T01:08:19;19.77;;;6.30;;
75358;SDS011;64046;51.978;5.934;2024-03-23T01:10:53;14.32;;;6.18;;
75358;SDS011;64046;51.978;5.934;2024-03-23T01:13:23;16.92;;;6.53;;
75358;SDS011;64046;51.978;5.934;2024-03-23T01:15:50;22.48;;;5.95;;
75358;SDS011;64046;51.978;5.934;2024-03-23T01:18:17;18.30;;;6.00;;
75358;SDS011;64046;51.978;5.934;2024-03-23T01:20:44;17.38;;;6.18;;
75358;SDS011;64046;51.978;5.934;2024-03-23T01:23:11;19.25;;;6.43;;
75358;SDS011;64046;51.978;5.934;2024-03-23T01:25:38;15.70;;;5.70;;
75358;SDS011;64046;51.978;5.934;2024-03-23T01:28:05;22.20;;;5.90;;
75358;SDS011;64046;51.978;5.934;2024-03-23T01:30:35;20.60;;;5.38;;
75358;SDS011;64046;51.978;5.934;2024-03-23T01:33:02;18.40;;;7.15;;
75358;SDS011;64046;51.978;5.934;2024-03-23T01:35:29;19.95;;;7.13;;
75358;SDS011;64046;51.978;5.934;2024-03-23T01:37:56;19.13;;;6.78;;
75358;SDS011;64046;51.978;5.934;2024-03-23T01:40:22;17.65;;;6.32;;
75358;SDS011;64046;51.978;5.934;2024-03-23T01:42:55;17.27;;;6.47;;
75358;SDS011;64046;51.978;5.934;2024-03-23T01:45:22;18.25;;;6.18;;
75358;SDS011;64046;51.978;5.934;2024-03-23T01:47:52;15.35;;;6.05;;
75358;SDS011;64046;51.978;5.934;2024-03-23T01:50:18;14.70;;;5.40;;
75358;SDS011;64046;51.978;5.934;2024-03-23T01:52:46;16.73;;;6.18;;
75358;SDS011;64046;51.978;5.934;2024-03-23T01:55:16;20.60;;;6.22;;
75358;SDS011;64046;51.978;5.934;2024-03-23T01:57:43;23.67;;;6.78;;
75358;SDS011;64046;51.978;5.934;2024-03-23T02:00:10;21.08;;;6.65;;
75358;SDS011;64046;51.978;5.934;2024-03-23T02:02:42;22.63;;;6.20;;
75358;SDS011;64046;51.978;5.934;2024-03-23T02:05:12;21.75;;;8.23;;
75358;SDS011;64046;51.978;5.934;2024-03-23T02:07:40;18.88;;;7.70;;
75358;SDS011;64046;51.978;5.934;2024-03-23T02:10:07;20.25;;;8.07;;
75358;SDS011;64046;51.978;5.934;2024-03-23T02:12:35;22.48;;;7.00;;
75358;SDS011;64046;51.978;5.934;2024-03-23T02:15:02;21.10;;;7.35;;
75358;SDS011;64046;51.978;5.934;2024-03-23T02:17:30;28.88;;;8.27;;
75358;SDS011;64046;51.978;5.934;2024-03-23T02:19:58;16.83;;;6.57;;
75358;SDS011;64046;51.978;5.934;2024-03-23T02:22:33;22.17;;;6.68;;
75358;SDS011;64046;51.978;5.934;2024-03-23T02:25:05;17.63;;;6.53;;
75358;SDS011;64046;51.978;5.934;2024-03-23T02:27:32;13.15;;;6.18;;
75358;SDS011;64046;51.978;5.934;2024-03-23T02:29:59;20.17;;;6.57;;
75358;SDS011;64046;51.978;5.934;2024-03-23T02:32:26;16.23;;;7.18;;
75358;SDS011;64046;51.978;5.934;2024-03-23T02:34:52;17.30;;;6.65;;
75358;SDS011;64046;51.978;5.934;2024-03-23T02:37:19;18.60;;;6.85;;
75358;SDS011;64046;51.978;5.934;2024-03-23T02:39:46;18.98;;;6.85;;
75358;SDS011;64046;51.978;5.934;2024-03-23T02:42:15;25.35;;;8.55;;
75358;SDS011;64046;51.978;5.934;2024-03-23T02:44:42;17.15;;;7.20;;
75358;SDS011;64046;51.978;5.934;2024-03-23T02:47:09;22.15;;;9.02;;
75358;SDS011;64046;51.978;5.934;2024-03-23T02:49:35;27.52;;;8.55;;
75358;SDS011;64046;51.978;5.934;2024-03-23T02:52:02;21.98;;;7.72;;
75358;SDS011;64046;51.978;5.934;2024-03-23T02:54:29;28.52;;;8.98;;
75358;SDS011;64046;51.978;5.934;2024-03-23T02:56:55;17.63;;;8.07;;
75358;SDS011;64046;51.978;5.934;2024-03-23T02:59:25;21.42;;;8.65;;
75358;SDS011;64046;51.978;5.934;2024-03-23T03:01:51;21.42;;;7.47;;
75358;SDS011;64046;51.978;5.934;2024-03-23T03:04:18;20.10;;;7.43;;
75358;SDS011;64046;51.978;5.934;2024-03-23T03:06:46;22.08;;;7.93;;
75358;SDS011;64046;51.978;5.934;2024-03-23T03:09:14;16.95;;;7.72;;
75358;SDS011;64046;51.978;5.934;2024-03-23T03:11:41;22.98;;;8.32;;
75358;SDS011;64046;51.978;5.934;2024-03-23T03:14:08;24.70;;;8.98;;
75358;SDS011;64046;51.978;5.934;2024-03-23T03:16:37;15.90;;;7.25;;
75358;SDS011;64046;51.978;5.934;2024-03-23T03:19:04;22.50;;;9.73;;
75358;SDS011;64046;51.978;5.934;2024-03-23T03:21:31;22.05;;;8.90;;
75358;SDS011;64046;51.978;5.934;2024-03-23T03:23:57;18.20;;;8.27;;
75358;SDS011;64046;51.978;5.934;2024-03-23T03:26:24;21.67;;;8.07;;
75358;SDS011;64046;51.978;5.934;2024-03-23T03:28:51;21.23;;;8.63;;
75358;SDS011;64046;51.978;5.934;2024-03-23T03:31:17;27.70;;;10.88;;
75358;SDS011;64046;51.978;5.934;2024-03-23T03:33:49;23.15;;;9.32;;
75358;SDS011;64046;51.978;5.934;2024-03-23T03:36:16;24.17;;;9.20;;
75358;SDS011;64046;51.978;5.934;2024-03-23T03:38:42;25.05;;;10.07;;
75358;SDS011;64046;51.978;5.934;2024-03-23T03:41:09;18.27;;;8.02;;
75358;SDS011;64046;51.978;5.934;2024-03-23T03:43:36;29.30;;;9.57;;
75358;SDS011;64046;51.978;5.934;2024-03-23T03:46:03;24.55;;;9.38;;
75358;SDS011;64046;51.978;5.934;2024-03-23T03:48:30;22.00;;;9.32;;
75358;SDS011;64046;51.978;5.934;2024-03-23T03:50:59;18.75;;;8.65;;
75358;SDS011;64046;51.978;5.934;2024-03-23T03:53:26;20.17;;;8.57;;
75358;SDS011;64046;51.978;5.934;2024-03-23T03:55:53;17.30;;;8.52;;
75358;SDS011;64046;51.978;5.934;2024-03-23T03:58:20;22.88;;;8.13;;
75358;SDS011;64046;51.978;5.934;2024-03-23T04:00:46;24.73;;;8.85;;
75358;SDS011;64046;51.978;5.934;2024-03-23T04:03:13;27.45;;;9.60;;
75358;SDS011;64046;51.978;5.934;2024-03-23T04:05:40;24.20;;;9.10;;
75358;SDS011;64046;51.978;5.934;2024-03-23T04:08:09;18.45;;;8.00;;
75358;SDS011;64046;51.978;5.934;2024-03-23T04:10:36;21.98;;;8.77;;
75358;SDS011;64046;51.978;5.934;2024-03-23T04:13:03;21.23;;;8.95;;
75358;SDS011;64046;51.978;5.934;2024-03-23T04:15:30;20.13;;;8.55;;
75358;SDS011;64046;51.978;5.934;2024-03-23T04:17:56;25.88;;;8.38;;
75358;SDS011;64046;51.978;5.934;2024-03-23T04:20:23;21.95;;;9.25;;
75358;SDS011;64046;51.978;5.934;2024-03-23T04:22:50;21.67;;;9.30;;
75358;SDS011;64046;51.978;5.934;2024-03-23T04:25:19;20.92;;;7.95;;
75358;SDS011;64046;51.978;5.934;2024-03-23T04:27:46;18.45;;;7.65;;
75358;SDS011;64046;51.978;5.934;2024-03-23T04:30:13;20.67;;;7.90;;
75358;SDS011;64046;51.978;5.934;2024-03-23T04:32:39;15.57;;;7.07;;
75358;SDS011;64046;51.978;5.934;2024-03-23T04:35:07;23.25;;;7.43;;
75358;SDS011;64046;51.978;5.934;2024-03-23T04:37:34;20.13;;;8.15;;
75358;SDS011;64046;51.978;5.934;2024-03-23T04:40:01;17.25;;;7.95;;
75358;SDS011;64046;51.978;5.934;2024-03-23T04:42:31;24.55;;;7.63;;
75358;SDS011;64046;51.978;5.934;2024-03-23T04:44:58;21.73;;;7.38;;
75358;SDS011;64046;51.978;5.934;2024-03-23T04:47:25;14.07;;;6.60;;
75358;SDS011;64046;51.978;5.934;2024-03-23T04:49:52;19.02;;;6.90;;
75358;SDS011;64046;51.978;5.934;2024-03-23T04:52:19;21.73;;;7.28;;
75358;SDS011;64046;51.978;5.934;2024-03-23T04:54:46;15.00;;;6.25;;
75358;SDS011;64046;51.978;5.934;2024-03-23T04:57:12;15.20;;;6.30;;
75358;SDS011;64046;51.978;5.934;2024-03-23T04:59:49;14.55;;;5.85;;
75358;SDS011;64046;51.978;5.934;2024-03-23T05:02:15;20.02;;;7.43;;
75358;SDS011;64046;51.978;5.934;2024-03-23T05:04:42;14.45;;;5.97;;
75358;SDS011;64046;51.978;5.934;2024-03-23T05:07:09;13.50;;;5.30;;
75358;SDS011;64046;51.978;5.934;2024-03-23T05:09:35;17.60;;;5.45;;
75358;SDS011;64046;51.978;5.934;2024-03-23T05:12:02;16.02;;;6.03;;
75358;SDS011;64046;51.978;5.934;2024-03-23T05:14:29;13.90;;;5.25;;
75358;SDS011;64046;51.978;5.934;2024-03-23T05:16:58;17.42;;;4.82;;
75358;SDS011;64046;51.978;5.934;2024-03-23T05:19:25;20.33;;;5.15;;
75358;SDS011;64046;51.978;5.934;2024-03-23T05:21:51;22.58;;;4.60;;
75358;SDS011;64046;51.978;5.934;2024-03-23T05:24:19;11.65;;;3.72;;
75358;SDS011;64046;51.978;5.934;2024-03-23T05:26:45;14.35;;;3.85;;
75358;SDS011;64046;51.978;5.934;2024-03-23T05:29:12;15.95;;;4.70;;
75358;SDS011;64046;51.978;5.934;2024-03-23T05:31:39;14.80;;;3.97;;
75358;SDS011;64046;51.978;5.934;2024-03-23T05:34:09;9.90;;;3.45;;
75358;SDS011;64046;51.978;5.934;2024-03-23T05:36:36;9.60;;;3.78;;
75358;SDS011;64046;51.978;5.934;2024-03-23T05:39:03;11.55;;;4.50;;
75358;SDS011;64046;51.978;5.934;2024-03-23T05:41:30;14.18;;;4.07;;
75358;SDS011;64046;51.978;5.934;2024-03-23T05:43:56;14.50;;;3.85;;
75358;SDS011;64046;51.978;5.934;2024-03-23T05:46:23;13.68;;;3.80;;
75358;SDS011;64046;51.978;5.934;2024-03-23T05:48:50;15.93;;;4.10;;
75358;SDS011;64046;51.978;5.934;2024-03-23T05:51:28;12.98;;;3.97;;
75358;SDS011;64046;51.978;5.934;2024-03-23T05:53:55;11.95;;;4.15;;
75358;SDS011;64046;51.978;5.934;2024-03-23T05:56:22;13.60;;;4.22;;
75358;SDS011;64046;51.978;5.934;2024-03-23T05:58:48;16.77;;;4.32;;
75358;SDS011;64046;51.978;5.934;2024-03-23T06:01:15;14.13;;;3.85;;
75358;SDS011;64046;51.978;5.934;2024-03-23T06:03:42;16.77;;;4.32;;
75358;SDS011;64046;51.978;5.934;2024-03-23T06:06:09;15.75;;;4.00;;
75358;SDS011;64046;51.978;5.934;2024-03-23T06:08:38;10.20;;;3.47;;
75358;SDS011;64046;51.978;5.934;2024-03-23T06:11:05;13.98;;;3.28;;
75358;SDS011;64046;51.978;5.934;2024-03-23T06:13:32;14.68;;;3.60;;
75358;SDS011;64046;51.978;5.934;2024-03-23T06:15:59;12.63;;;3.75;;
75358;SDS011;64046;51.978;5.934;2024-03-23T06:18:26;15.77;;;3.45;;
75358;SDS011;64046;51.978;5.934;2024-03-23T06:20:53;14.32;;;4.07;;
75358;SDS011;64046;51.978;5.934;2024-03-23T06:23:19;14.05;;;4.13;;
75358;SDS011;64046;51.978;5.934;2024-03-23T06:25:49;13.52;;;3.80;;
75358;SDS011;64046;51.978;5.934;2024-03-23T06:28:16;12.35;;;3.47;;
75358;SDS011;64046;51.978;5.934;2024-03-23T06:30:44;8.63;;;3.10;;
75358;SDS011;64046;51.978;5.934;2024-03-23T06:33:11;14.52;;;3.80;;
75358;SDS011;64046;51.978;5.934;2024-03-23T06:35:37;15.90;;;3.33;;
75358;SDS011;64046;51.978;5.934;2024-03-23T06:38:04;15.15;;;3.70;;
75358;SDS011;64046;51.978;5.934;2024-03-23T06:40:31;11.30;;;3.45;;
75358;SDS011;64046;51.978;5.934;2024-03-23T06:43:00;9.45;;;3.08;;
75358;SDS011;64046;51.978;5.934;2024-03-23T06:45:27;7.38;;;3.30;;
75358;SDS011;64046;51.978;5.934;2024-03-23T06:47:53;11.18;;;3.25;;
75358;SDS011;64046;51.978;5.934;2024-03-23T06:50:20;10.45;;;3.15;;
75358;SDS011;64046;51.978;5.934;2024-03-23T06:52:47;13.82;;;3.45;;
75358;SDS011;64046;51.978;5.934;2024-03-23T06:55:13;9.38;;;3.08;;
75358;SDS011;64046;51.978;5.934;2024-03-23T06:57:40;8.68;;;3.28;;
75358;SDS011;64046;51.978;5.934;2024-03-23T07:00:12;11.60;;;2.90;;
75358;SDS011;64046;51.978;5.934;2024-03-23T07:02:39;11.32;;;2.92;;
75358;SDS011;64046;51.978;5.934;2024-03-23T07:05:06;12.30;;;3.53;;
75358;SDS011;64046;51.978;5.934;2024-03-23T07:07:33;12.57;;;2.67;;
75358;SDS011;64046;51.978;5.934;2024-03-23T07:10:01;10.27;;;2.72;;
75358;SDS011;64046;51.978;5.934;2024-03-23T07:12:30;9.88;;;2.80;;
75358;SDS011;64046;51.978;5.934;2024-03-23T07:14:56;8.20;;;2.90;;
75358;SDS011;64046;51.978;5.934;2024-03-23T07:17:25;10.68;;;3.55;;
75358;SDS011;64046;51.978;5.934;2024-03-23T07:19:52;8.70;;;2.70;;
75358;SDS011;64046;51.978;5.934;2024-03-23T07:22:19;12.05;;;3.25;;
75358;SDS011;64046;51.978;5.934;2024-03-23T07:24:46;13.70;;;3.45;;
75358;SDS011;64046;51.978;5.934;2024-03-23T07:27:12;8.38;;;2.78;;
75358;SDS011;64046;51.978;5.934;2024-03-23T07:29:39;12.43;;;3.60;;
75358;SDS011;64046;51.978;5.934;2024-03-23T07:32:06;6.55;;;2.33;;
75358;SDS011;64046;51.978;5.934;2024-03-23T07:34:35;14.80;;;3.08;;
75358;SDS011;64046;51.978;5.934;2024-03-23T07:37:02;10.75;;;3.00;;
75358;SDS011;64046;51.978;5.934;2024-03-23T07:39:29;6.88;;;2.67;;
75358;SDS011;64046;51.978;5.934;2024-03-23T07:41:56;11.20;;;3.30;;
75358;SDS011;64046;51.978;5.934;2024-03-23T07:44:23;10.32;;;3.38;;
75358;SDS011;64046;51.978;5.934;2024-03-23T07:46:49;12.65;;;3.50;;
75358;SDS011;64046;51.978;5.934;2024-03-23T07:49:16;17.25;;;3.88;;
75358;SDS011;64046;51.978;5.934;2024-03-23T07:51:45;16.55;;;3.60;;
75358;SDS011;64046;51.978;5.934;2024-03-23T07:54:12;14.20;;;3.40;;
75358;SDS011;64046;51.978;5.934;2024-03-23T07:56:39;11.35;;;4.18;;
75358;SDS011;64046;51.978;5.934;2024-03-23T07:59:05;12.95;;;2.97;;
75358;SDS011;64046;51.978;5.934;2024-03-23T08:01:32;14.30;;;3.25;;
75358;SDS011;64046;51.978;5.934;2024-03-23T08:03:59;14.52;;;2.90;;
75358;SDS011;64046;51.978;5.934;2024-03-23T08:06:26;12.05;;;3.22;;
75358;SDS011;64046;51.978;5.934;2024-03-23T08:08:55;8.85;;;2.92;;
75358;SDS011;64046;51.978;5.934;2024-03-23T08:11:25;12.90;;;3.65;;
75358;SDS011;64046;51.978;5.934;2024-03-23T08:13:52;20.33;;;3.63;;
75358;SDS011;64046;51.978;5.934;2024-03-23T08:16:19;12.43;;;3.88;;
75358;SDS011;64046;51.978;5.934;2024-03-23T08:18:46;14.52;;;3.20;;
75358;SDS011;64046;51.978;5.934;2024-03-23T08:21:13;10.02;;;3.40;;
75358;SDS011;64046;51.978;5.934;2024-03-23T08:23:40;13.20;;;3.22;;
75358;SDS011;64046;51.978;5.934;2024-03-23T08:26:09;19.70;;;3.20;;
75358;SDS011;64046;51.978;5.934;2024-03-23T08:28:37;16.02;;;3.90;;
75358;SDS011;64046;51.978;5.934;2024-03-23T08:31:08;12.45;;;3.40;;
75358;SDS011;64046;51.978;5.934;2024-03-23T08:33:37;15.45;;;2.72;;
75358;SDS011;64046;51.978;5.934;2024-03-23T08:36:04;20.00;;;3.53;;
75358;SDS011;64046;51.978;5.934;2024-03-23T08:38:32;12.23;;;2.97;;
75358;SDS011;64046;51.978;5.934;2024-03-23T08:41:00;12.02;;;2.95;;
75358;SDS011;64046;51.978;5.934;2024-03-23T08:43:31;9.82;;;3.15;;
75358;SDS011;64046;51.978;5.934;2024-03-23T08:46:03;11.68;;;2.70;;
75358;SDS011;64046;51.978;5.934;2024-03-23T08:48:30;8.30;;;2.72;;
75358;SDS011;64046;51.978;5.934;2024-03-23T08:51:00;11.13;;;2.85;;
75358;SDS011;64046;51.978;5.934;2024-03-23T08:53:27;11.55;;;2.50;;
75358;SDS011;64046;51.978;5.934;2024-03-23T08:55:55;13.23;;;2.80;;
75358;SDS011;64046;51.978;5.934;2024-03-23T08:58:23;14.82;;;2.80;;
75358;SDS011;64046;51.978;5.934;2024-03-23T09:00:54;11.05;;;3.20;;
75358;SDS011;64046;51.978;5.934;2024-03-23T09:03:21;11.15;;;2.45;;
75358;SDS011;64046;51.978;5.934;2024-03-23T09:05:49;7.40;;;2.22;;
75358;SDS011;64046;51.978;5.934;2024-03-23T09:08:15;5.28;;;1.95;;
75358;SDS011;64046;51.978;5.934;2024-03-23T09:10:42;10.38;;;2.45;;
75358;SDS011;64046;51.978;5.934;2024-03-23T09:13:10;12.18;;;2.10;;
75358;SDS011;64046;51.978;5.934;2024-03-23T09:15:37;10.77;;;1.92;;
75358;SDS011;64046;51.978;5.934;2024-03-23T09:18:14;11.48;;;2.50;;
75358;SDS011;64046;51.978;5.934;2024-03-23T09:20:40;11.55;;;2.63;;
75358;SDS011;64046;51.978;5.934;2024-03-23T09:23:07;12.45;;;2.38;;
75358;SDS011;64046;51.978;5.934;2024-03-23T09:25:36;6.78;;;1.88;;
75358;SDS011;64046;51.978;5.934;2024-03-23T09:28:03;12.18;;;2.65;;
75358;SDS011;64046;51.978;5.934;2024-03-23T09:30:31;9.77;;;2.10;;
75358;SDS011;64046;51.978;5.934;2024-03-23T09:32:58;6.85;;;2.08;;
75358;SDS011;64046;51.978;5.934;2024-03-23T09:35:28;14.10;;;2.88;;
75358;SDS011;64046;51.978;5.934;2024-03-23T09:37:54;10.73;;;2.30;;
75358;SDS011;64046;51.978;5.934;2024-03-23T09:40:21;9.23;;;2.33;;
75358;SDS011;64046;51.978;5.934;2024-03-23T09:42:51;9.68;;;2.17;;
75358;SDS011;64046;51.978;5.934;2024-03-23T09:45:20;7.63;;;2.00;;
75358;SDS011;64046;51.978;5.934;2024-03-23T09:47:48;9.23;;;2.15;;
75358;SDS011;64046;51.978;5.934;2024-03-23T09:50:16;10.15;;;2.15;;
75358;SDS011;64046;51.978;5.934;2024-03-23T09:52:45;8.50;;;2.58;;
75358;SDS011;64046;51.978;5.934;2024-03-23T09:55:12;11.18;;;2.78;;
75358;SDS011;64046;51.978;5.934;2024-03-23T09:57:39;12.55;;;2.97;;
75358;SDS011;64046;51.978;5.934;2024-03-23T10:00:06;8.63;;;2.35;;
75358;SDS011;64046;51.978;5.934;2024-03-23T10:02:34;9.30;;;2.40;;
75358;SDS011;64046;51.978;5.934;2024-03-23T10:05:01;12.57;;;3.22;;
75358;SDS011;64046;51.978;5.934;2024-03-23T10:07:29;10.30;;;2.33;;
75358;SDS011;64046;51.978;5.934;2024-03-23T10:09:58;12.02;;;2.40;;
75358;SDS011;64046;51.978;5.934;2024-03-23T10:12:40;8.65;;;2.38;;
75358;SDS011;64046;51.978;5.934;2024-03-23T10:15:13;9.10;;;2.28;;
75358;SDS011;64046;51.978;5.934;2024-03-23T10:17:43;8.75;;;2.00;;
75358;SDS011;64046;51.978;5.934;2024-03-23T10:20:10;6.00;;;2.22;;
75358;SDS011;64046;51.978;5.934;2024-03-23T10:22:37;8.95;;;2.33;;
75358;SDS011;64046;51.978;5.934;2024-03-23T10:25:11;8.32;;;2.28;;
75358;SDS011;64046;51.978;5.934;2024-03-23T10:27:38;7.45;;;2.05;;
75358;SDS011;64046;51.978;5.934;2024-03-23T10:30:08;9.77;;;2.63;;
75358;SDS011;64046;51.978;5.934;2024-03-23T10:32:35;10.57;;;2.60;;
75358;SDS011;64046;51.978;5.934;2024-03-23T10:35:15;8.20;;;2.20;;
75358;SDS011;64046;51.978;5.934;2024-03-23T10:37:45;10.38;;;2.15;;
75358;SDS011;64046;51.978;5.934;2024-03-23T10:40:15;7.07;;;1.80;;
75358;SDS011;64046;51.978;5.934;2024-03-23T10:42:42;9.65;;;2.88;;
75358;SDS011;64046;51.978;5.934;2024-03-23T10:45:09;7.93;;;2.35;;
75358;SDS011;64046;51.978;5.934;2024-03-23T10:47:37;7.78;;;2.28;;
75358;SDS011;64046;51.978;5.934;2024-03-23T10:50:04;10.00;;;2.45;;
75358;SDS011;64046;51.978;5.934;2024-03-23T10:52:31;16.95;;;2.53;;
75358;SDS011;64046;51.978;5.934;2024-03-23T10:55:00;8.35;;;2.10;;
75358;SDS011;64046;51.978;5.934;2024-03-23T10:57:34;13.18;;;3.17;;
75358;SDS011;64046;51.978;5.934;2024-03-23T11:00:07;11.18;;;3.00;;
75358;SDS011;64046;51.978;5.934;2024-03-23T11:02:36;6.72;;;2.22;;
75358;SDS011;64046;51.978;5.934;2024-03-23T11:05:06;12.68;;;3.10;;
75358;SDS011;64046;51.978;5.934;2024-03-23T11:07:56;8.88;;;2.97;;
75358;SDS011;64046;51.978;5.934;2024-03-23T11:10:26;8.70;;;2.53;;
75358;SDS011;64046;51.978;5.934;2024-03-23T11:12:56;8.93;;;2.10;;
75358;SDS011;64046;51.978;5.934;2024-03-23T11:15:23;8.15;;;2.25;;
75358;SDS011;64046;51.978;5.934;2024-03-23T11:18:03;6.78;;;2.38;;
75358;SDS011;64046;51.978;5.934;2024-03-23T11:20:34;9.65;;;2.00;;
75358;SDS011;64046;51.978;5.934;2024-03-23T11:23:01;8.65;;;2.22;;
75358;SDS011;64046;51.978;5.934;2024-03-23T11:25:28;13.52;;;2.58;;
75358;SDS011;64046;51.978;5.934;2024-03-23T11:27:58;12.55;;;2.78;;
75358;SDS011;64046;51.978;5.934;2024-03-23T11:30:36;9.48;;;2.00;;
75358;SDS011;64046;51.978;5.934;2024-03-23T11:33:03;9.00;;;2.17;;
75358;SDS011;64046;51.978;5.934;2024-03-23T11:35:31;8.27;;;2.33;;
75358;SDS011;64046;51.978;5.934;2024-03-23T11:38:05;5.47;;;2.00;;
75358;SDS011;64046;51.978;5.934;2024-03-23T11:40:33;10.52;;;2.70;;
75358;SDS011;64046;51.978;5.934;2024-03-23T11:43:03;15.73;;;2.70;;
75358;SDS011;64046;51.978;5.934;2024-03-23T11:45:33;16.90;;;2.83;;
75358;SDS011;64046;51.978;5.934;2024-03-23T11:48:02;9.68;;;2.08;;
75358;SDS011;64046;51.978;5.934;2024-03-23T11:50:30;5.28;;;1.98;;
75358;SDS011;64046;51.978;5.934;2024-03-23T11:53:12;5.88;;;2.05;;
75358;SDS011;64046;51.978;5.934;2024-03-23T11:55:41;5.68;;;1.92;;
75358;SDS011;64046;51.978;5.934;2024-03-23T11:58:12;8.38;;;1.80;;
75358;SDS011;64046;51.978;5.934;2024-03-23T12:00:39;7.53;;;2.28;;
75358;SDS011;64046;51.978;5.934;2024-03-23T12:03:06;8.50;;;2.15;;
75358;SDS011;64046;51.978;5.934;2024-03-23T12:05:35;5.00;;;2.15;;
75358;SDS011;64046;51.978;5.934;2024-03-23T12:08:16;7.15;;;1.90;;
75358;SDS011;64046;51.978;5.934;2024-03-23T12:10:44;5.65;;;1.88;;
75358;SDS011;64046;51.978;5.934;2024-03-23T12:13:17;13.60;;;2.22;;
75358;SDS011;64046;51.978;5.934;2024-03-23T12:15:45;10.35;;;2.08;;
75358;SDS011;64046;51.978;5.934;2024-03-23T12:18:12;16.35;;;2.10;;
75358;SDS011;64046;51.978;5.934;2024-03-23T12:20:39;10.13;;;2.22;;
75358;SDS011;64046;51.978;5.934;2024-03-23T12:23:07;7.25;;;2.13;;
75358;SDS011;64046;51.978;5.934;2024-03-23T12:25:35;8.52;;;2.20;;
75358;SDS011;64046;51.978;5.934;2024-03-23T12:28:02;6.75;;;2.22;;
75358;SDS011;64046;51.978;5.934;2024-03-23T12:30:33;13.00;;;2.80;;
75358;SDS011;64046;51.978;5.934;2024-03-23T12:33:00;10.18;;;3.00;;
75358;SDS011;64046;51.978;5.934;2024-03-23T12:35:27;9.00;;;2.72;;
75358;SDS011;64046;51.978;5.934;2024-03-23T12:37:54;12.52;;;3.20;;
75358;SDS011;64046;51.978;5.934;2024-03-23T12:40:21;9.77;;;2.85;;
75358;SDS011;64046;51.978;5.934;2024-03-23T12:42:47;13.25;;;3.28;;
75358;SDS011;64046;51.978;5.934;2024-03-23T12:45:14;11.95;;;2.05;;
75358;SDS011;64046;51.978;5.934;2024-03-23T12:47:44;10.13;;;1.88;;
75358;SDS011;64046;51.978;5.934;2024-03-23T12:50:10;14.57;;;3.05;;
75358;SDS011;64046;51.978;5.934;2024-03-23T12:52:39;9.52;;;2.40;;
75358;SDS011;64046;51.978;5.934;2024-03-23T12:55:06;8.68;;;2.70;;
75358;SDS011;64046;51.978;5.934;2024-03-23T12:57:33;6.00;;;2.30;;
75358;SDS011;64046;51.978;5.934;2024-03-23T13:00:00;14.18;;;2.25;;
75358;SDS011;64046;51.978;5.934;2024-03-23T13:02:27;7.88;;;2.25;;
75358;SDS011;64046;51.978;5.934;2024-03-23T13:04:56;7.05;;;2.42;;
75358;SDS011;64046;51.978;5.934;2024-03-23T13:07:23;8.02;;;2.28;;
75358;SDS011;64046;51.978;5.934;2024-03-23T13:09:50;11.18;;;2.60;;
75358;SDS011;64046;51.978;5.934;2024-03-23T13:12:17;8.57;;;2.22;;
75358;SDS011;64046;51.978;5.934;2024-03-23T13:14:44;8.07;;;1.85;;
75358;SDS011;64046;51.978;5.934;2024-03-23T13:17:11;7.55;;;2.20;;
75358;SDS011;64046;51.978;5.934;2024-03-23T13:19:38;10.45;;;2.00;;
75358;SDS011;64046;51.978;5.934;2024-03-23T13:22:07;6.55;;;2.08;;
75358;SDS011;64046;51.978;5.934;2024-03-23T13:24:34;9.00;;;1.85;;
75358;SDS011;64046;51.978;5.934;2024-03-23T13:27:01;8.48;;;2.00;;
75358;SDS011;64046;51.978;5.934;2024-03-23T13:29:27;7.10;;;2.22;;
75358;SDS011;64046;51.978;5.934;2024-03-23T13:31:54;6.97;;;2.08;;
75358;SDS011;64046;51.978;5.934;2024-03-23T13:34:21;8.77;;;2.15;;
75358;SDS011;64046;51.978;5.934;2024-03-23T13:36:47;9.40;;;2.42;;
75358;SDS011;64046;51.978;5.934;2024-03-23T13:39:17;6.68;;;2.00;;
75358;SDS011;64046;51.978;5.934;2024-03-23T13:41:44;12.55;;;2.45;;
75358;SDS011;64046;51.978;5.934;2024-03-23T13:44:11;12.18;;;2.17;;
75358;SDS011;64046;51.978;5.934;2024-03-23T13:46:39;12.52;;;2.47;;
75358;SDS011;64046;51.978;5.934;2024-03-23T13:49:06;14.02;;;3.13;;
75358;SDS011;64046;51.978;5.934;2024-03-23T13:51:33;9.85;;;2.47;;
75358;SDS011;64046;51.978;5.934;2024-03-23T13:54:00;10.55;;;2.33;;
75358;SDS011;64046;51.978;5.934;2024-03-23T13:56:30;9.13;;;2.30;;
75358;SDS011;64046;51.978;5.934;2024-03-23T13:58:56;10.43;;;2.20;;
75358;SDS011;64046;51.978;5.934;2024-03-23T14:01:23;10.18;;;1.70;;
75358;SDS011;64046;51.978;5.934;2024-03-23T14:03:50;13.50;;;2.55;;
75358;SDS011;64046;51.978;5.934;2024-03-23T14:06:17;10.18;;;2.45;;
75358;SDS011;64046;51.978;5.934;2024-03-23T14:08:43;7.53;;;2.10;;
75358;SDS011;64046;51.978;5.934;2024-03-23T14:11:10;8.25;;;2.47;;
75358;SDS011;64046;51.978;5.934;2024-03-23T14:13:39;14.38;;;2.92;;
75358;SDS011;64046;51.978;5.934;2024-03-23T14:16:06;8.55;;;2.17;;
75358;SDS011;64046;51.978;5.934;2024-03-23T14:18:33;10.43;;;2.25;;
75358;SDS011;64046;51.978;5.934;2024-03-23T14:21:00;8.40;;;2.00;;
75358;SDS011;64046;51.978;5.934;2024-03-23T14:23:27;8.20;;;1.75;;
75358;SDS011;64046;51.978;5.934;2024-03-23T14:25:55;5.03;;;1.73;;
75358;SDS011;64046;51.978;5.934;2024-03-23T14:28:22;6.18;;;1.92;;
75358;SDS011;64046;51.978;5.934;2024-03-23T14:30:51;14.45;;;1.98;;
75358;SDS011;64046;51.978;5.934;2024-03-23T14:33:21;8.82;;;2.20;;
75358;SDS011;64046;51.978;5.934;2024-03-23T14:35:51;12.30;;;1.85;;
75358;SDS011;64046;51.978;5.934;2024-03-23T14:38:19;9.55;;;2.38;;
75358;SDS011;64046;51.978;5.934;2024-03-23T14:40:46;10.35;;;1.90;;
75358;SDS011;64046;51.978;5.934;2024-03-23T14:43:12;7.55;;;1.75;;
75358;SDS011;64046;51.978;5.934;2024-03-23T14:45:49;9.63;;;1.83;;
75358;SDS011;64046;51.978;5.934;2024-03-23T14:48:35;8.63;;;1.85;;
75358;SDS011;64046;51.978;5.934;2024-03-23T14:51:02;4.45;;;1.67;;
75358;SDS011;64046;51.978;5.934;2024-03-23T14:53:30;9.18;;;1.90;;
75358;SDS011;64046;51.978;5.934;2024-03-23T14:55:57;5.85;;;1.98;;
75358;SDS011;64046;51.978;5.934;2024-03-23T14:58:24;8.80;;;2.60;;
75358;SDS011;64046;51.978;5.934;2024-03-23T15:00:51;9.43;;;1.90;;
75358;SDS011;64046;51.978;5.934;2024-03-23T15:03:20;8.10;;;2.00;;
75358;SDS011;64046;51.978;5.934;2024-03-23T15:05:52;6.05;;;1.58;;
75358;SDS011;64046;51.978;5.934;2024-03-23T15:08:19;4.15;;;1.63;;
75358;SDS011;64046;51.978;5.934;2024-03-23T15:10:47;8.02;;;2.08;;
75358;SDS011;64046;51.978;5.934;2024-03-23T15:13:14;8.30;;;2.10;;
75358;SDS011;64046;51.978;5.934;2024-03-23T15:15:41;7.55;;;2.20;;
75358;SDS011;64046;51.978;5.934;2024-03-23T15:18:09;5.40;;;1.92;;
75358;SDS011;64046;51.978;5.934;2024-03-23T15:20:38;9.55;;;2.08;;
75358;SDS011;64046;51.978;5.934;2024-03-23T15:23:05;5.15;;;1.92;;
75358;SDS011;64046;51.978;5.934;2024-03-23T15:25:31;5.40;;;1.67;;
75358;SDS011;64046;51.978;5.934;2024-03-23T15:27:58;7.28;;;2.60;;
75358;SDS011;64046;51.978;5.934;2024-03-23T15:30:25;4.25;;;1.80;;
75358;SDS011;64046;51.978;5.934;2024-03-23T15:32:52;9.10;;;2.17;;
75358;SDS011;64046;51.978;5.934;2024-03-23T15:35:18;11.25;;;2.60;;